Stations météo

réclame
Mon MeteoGroup
K13 Alpha, Pays-Bas (6252): Température de l'air & dewpoint: 06.11.2019 11:00:00 - 12.11.2019 11:00:00 (CET)K13 Alpha, Pays-Bas (6252): water temperature: 06.11.2019 11:00:00 - 12.11.2019 11:00:00 (CET)K13 Alpha, Pays-Bas (6252): Vitesse du vent & gusts: 06.11.2019 11:00:00 - 12.11.2019 11:00:00 (CET)K13 Alpha, Pays-Bas (6252): Direction du vent: 06.11.2019 11:00:00 - 12.11.2019 11:00:00 (CET)K13 Alpha, Pays-Bas (6252): reduced air pressure: 06.11.2019 11:00:00 - 12.11.2019 11:00:00 (CET)
Date & Time tt [°C] td [°C] tw [°C] ff [km/h] ff [knt] fx [km/h] fx [knt] dd ppp [hPa]
12.11.2019 11:00:00 7,5 3,4 - 41 22 43 23 WSW 994,8
12.11.2019 10:00:00 7,6 3,7 12,9 42 23 43 23 WSW 994,7
12.11.2019 09:00:00 7,4 3,6 12,8 44 24 47 25 WSW 994,7
12.11.2019 08:00:00 7,4 3,4 12,9 46 25 47 25 WSW 994,9
12.11.2019 07:00:00 7,6 3,7 13,0 50 27 50 27 WSW 994,9
12.11.2019 06:00:00 7,6 3,6 13,1 44 24 54 29 WSW 994,9
12.11.2019 05:00:00 7,8 3,6 13,1 50 27 54 29 W 995,0
12.11.2019 04:00:00 7,9 3,8 13,1 55 30 58 31 W 995,2
12.11.2019 03:00:00 8,0 3,8 13,0 52 28 58 31 W 995,6
12.11.2019 02:00:00 8,3 4,2 13,0 55 30 58 31 W 995,6
12.11.2019 01:00:00 8,7 4,3 13,0 59 32 61 33 W 995,5
12.11.2019 00:00:00 8,9 4,5 13,0 59 32 65 35 W 995,4
11.11.2019 23:00:00 8,7 4,7 13,1 63 34 65 35 W 995,1
11.11.2019 22:00:00 8,7 4,7 13,1 59 32 65 35 W 995,4
11.11.2019 21:00:00 9,1 5,0 13,2 63 34 65 35 W 995,3
11.11.2019 20:00:00 9,4 5,1 13,3 61 33 61 33 W 995,0
11.11.2019 19:00:00 9,4 4,3 13,4 61 33 65 35 W 994,9
11.11.2019 18:00:00 9,0 4,3 13,4 54 29 61 33 W 994,6
11.11.2019 17:00:00 9,5 4,1 13,4 50 27 58 31 WNW 994,0
11.11.2019 16:00:00 8,1 4,8 13,5 42 23 50 27 WNW 993,9
11.11.2019 15:00:00 8,7 5,6 13,4 31 17 47 25 WNW 993,8
11.11.2019 14:00:00 8,7 5,6 13,4 29 16 58 31 W 994,1
11.11.2019 13:00:00 9,8 6,4 13,4 59 32 61 33 S 995,1
11.11.2019 12:00:00 9,8 6,6 13,3 57 31 58 31 S 996,6
11.11.2019 11:00:00 10,0 6,7 13,3 54 29 61 33 S 997,8
11.11.2019 10:00:00 10,1 6,1 13,3 52 28 54 29 S 998,9
11.11.2019 09:00:00 9,7 5,7 13,3 54 29 54 29 S 1000,4
11.11.2019 08:00:00 9,6 6,3 13,4 50 27 54 29 S 1001,5
11.11.2019 07:00:00 10,2 5,6 13,5 46 25 47 25 S 1002,4
11.11.2019 06:00:00 10,4 4,5 13,5 42 23 43 23 S 1003,8
11.11.2019 05:00:00 10,8 4,4 13,5 42 23 43 23 S 1004,9
11.11.2019 04:00:00 10,8 4,3 13,5 39 21 43 23 SSW 1006,5
11.11.2019 03:00:00 10,7 3,6 13,5 34 18 36 19 SSW 1008,0
11.11.2019 02:00:00 10,5 3,2 13,4 34 18 40 21 SSW 1009,5
11.11.2019 01:00:00 10,7 5,0 13,4 26 14 29 16 SW 1010,2
11.11.2019 00:00:00 9,8 5,3 13,4 16 9 18 10 S 1011,0
10.11.2019 23:00:00 9,3 4,4 13,3 8 4 11 6 SE 1011,6
10.11.2019 22:00:00 9,0 3,4 13,4 9 5 11 6 SE 1012,2
10.11.2019 21:00:00 9,2 2,1 13,4 8 4 11 6 ENE 1012,6
10.11.2019 20:00:00 9,2 2,4 13,4 8 4 18 10 NNE 1013,4
10.11.2019 19:00:00 9,3 2,9 13,5 16 9 22 12 NNE 1013,5
10.11.2019 18:00:00 9,4 3,1 13,5 18 10 22 12 N 1014,1
10.11.2019 17:00:00 9,7 4,2 13,6 22 12 25 14 N 1014,0
10.11.2019 16:00:00 9,9 3,9 13,6 24 13 29 16 N 1013,6
10.11.2019 15:00:00 10,1 5,0 13,6 26 14 29 16 N 1013,7
10.11.2019 14:00:00 10,5 5,8 13,6 21 11 29 16 N 1013,3
10.11.2019 13:00:00 10,9 5,5 13,5 21 11 25 14 NNE 1012,9
10.11.2019 12:00:00 10,9 5,3 13,4 11 6 18 10 NNE 1012,9
10.11.2019 11:00:00 10,1 5,6 13,4 21 11 25 14 NNE 1012,9
10.11.2019 10:00:00 10,0 5,5 13,4 26 14 25 14 N 1012,2
10.11.2019 09:00:00 9,8 5,9 13,4 15 8 22 12 NNW 1011,3
10.11.2019 08:00:00 9,8 5,2 13,4 13 7 18 10 N 1010,4
10.11.2019 07:00:00 9,5 4,7 13,5 18 10 22 12 NNE 1009,5
10.11.2019 06:00:00 9,8 5,4 13,6 16 9 22 12 NW 1009,0
10.11.2019 05:00:00 9,7 5,2 13,6 15 8 18 10 WNW 1008,5
10.11.2019 04:00:00 9,6 4,5 13,6 16 9 18 10 WNW 1007,8
10.11.2019 03:00:00 9,4 2,7 13,6 15 8 22 12 WNW 1007,3
10.11.2019 02:00:00 9,4 1,3 13,6 18 10 22 12 W 1007,0
10.11.2019 01:00:00 9,5 1,4 13,6 21 11 25 14 W 1006,6
10.11.2019 00:00:00 9,5 3,0 13,6 21 11 22 12 W 1006,1
09.11.2019 23:00:00 9,4 3,5 13,6 18 10 25 14 W 1005,7
09.11.2019 22:00:00 9,4 4,2 13,6 18 10 22 12 W 1005,4
09.11.2019 21:00:00 9,3 4,4 13,6 18 10 25 14 WNW 1005,0
09.11.2019 20:00:00 9,3 3,9 13,7 22 12 29 16 NW 1004,6
09.11.2019 19:00:00 8,8 4,0 13,7 28 15 29 16 NW 1004,8
09.11.2019 18:00:00 8,5 5,0 13,8 31 17 36 19 WNW 1004,6
09.11.2019 17:00:00 8,8 5,7 13,9 39 21 36 19 WNW 1004,0
09.11.2019 16:00:00 9,0 6,1 13,9 35 19 36 19 WNW 1003,7
09.11.2019 15:00:00 9,5 5,1 13,9 28 15 32 18 WNW 1003,7
09.11.2019 14:00:00 10,0 5,3 13,8 24 13 25 14 WNW 1003,7
09.11.2019 13:00:00 9,6 6,3 13,8 29 16 36 19 WNW 1003,5
09.11.2019 12:00:00 10,3 5,8 13,8 26 14 29 16 NNW 1003,7
09.11.2019 11:00:00 9,5 5,7 13,8 28 15 32 18 N 1003,8
09.11.2019 10:00:00 10,2 6,6 13,8 29 16 32 18 N 1003,6
09.11.2019 09:00:00 10,4 6,4 13,8 34 18 36 19 NNE 1003,5
09.11.2019 08:00:00 10,4 6,4 13,8 80 43 79 43 NNE 1003,2
09.11.2019 07:00:00 9,6 6,0 13,9 68 37 72 39 N 1003,1
09.11.2019 06:00:00 10,7 7,5 13,9 50 27 58 31 NNE 1003,0
09.11.2019 05:00:00 11,1 7,4 13,9 15 8 18 10 NNE 1002,7
09.11.2019 04:00:00 11,2 7,3 13,8 22 12 25 14 NE 1002,6
09.11.2019 03:00:00 11,4 7,0 13,8 9 5 14 8 NE 1002,7
09.11.2019 02:00:00 11,4 7,7 13,7 9 5 14 8 E 1002,8
09.11.2019 01:00:00 11,1 6,7 13,7 13 7 14 8 SE 1003,0
09.11.2019 00:00:00 11,1 6,9 13,7 13 7 18 10 S 1003,1
08.11.2019 23:00:00 11,1 7,1 13,8 18 10 22 12 S 1003,2
08.11.2019 22:00:00 10,6 7,0 13,8 22 12 25 14 S 1003,6
08.11.2019 21:00:00 10,6 6,9 13,8 26 14 25 14 SSW 1003,6
08.11.2019 20:00:00 10,8 7,1 13,8 24 13 29 16 SSW 1003,5
08.11.2019 19:00:00 10,3 7,4 13,8 31 17 32 18 SW 1003,6
08.11.2019 18:00:00 10,5 6,3 13,8 28 15 29 16 SW 1003,6
08.11.2019 17:00:00 10,4 6,7 13,8 31 17 32 18 SSW 1003,6
08.11.2019 16:00:00 10,1 5,5 13,9 34 18 36 19 SW 1003,8
08.11.2019 15:00:00 10,2 5,7 13,8 35 19 68 37 SW 1003,5
08.11.2019 14:00:00 9,3 3,8 13,8 42 23 54 29 SW 1003,6
08.11.2019 13:00:00 9,8 2,7 13,8 41 22 43 23 WSW 1003,4
08.11.2019 12:00:00 10,1 5,9 13,7 31 17 36 19 SW 1003,5
08.11.2019 11:00:00 9,8 5,3 13,7 34 18 36 19 SW 1003,5
08.11.2019 10:00:00 10,0 4,1 13,8 31 17 32 18 SW 1003,2
08.11.2019 09:00:00 10,0 4,3 13,8 34 18 36 19 SW 1002,7
08.11.2019 08:00:00 10,1 3,7 13,8 31 17 32 18 WSW 1002,1
08.11.2019 07:00:00 9,9 4,1 13,8 29 16 32 18 WSW 1001,4
08.11.2019 06:00:00 10,1 3,4 13,8 29 16 32 18 WSW 1000,8
08.11.2019 05:00:00 10,1 3,1 13,8 29 16 32 18 WSW 1000,3
08.11.2019 04:00:00 10,1 4,2 13,8 34 18 36 19 WSW 999,8
08.11.2019 03:00:00 10,2 4,1 13,9 35 19 36 19 WSW 999,3
08.11.2019 02:00:00 10,3 4,2 13,8 39 21 40 21 WSW 998,7
08.11.2019 01:00:00 10,3 4,1 13,9 41 22 47 25 WSW 998,3
08.11.2019 00:00:00 10,5 4,7 13,9 41 22 43 23 WSW 997,7
07.11.2019 23:00:00 10,7 4,5 13,8 44 24 47 25 WSW 997,0
07.11.2019 22:00:00 10,6 4,0 13,8 46 25 47 25 WSW 996,2
07.11.2019 21:00:00 10,4 5,3 13,8 34 18 47 25 W 995,6
07.11.2019 20:00:00 10,1 6,4 13,8 37 20 47 25 W 994,6
07.11.2019 19:00:00 9,2 5,6 13,9 28 15 29 16 W 994,1
07.11.2019 18:00:00 9,0 6,3 14,1 13 7 18 10 SSW 993,2
07.11.2019 17:00:00 9,3 7,1 14,1 18 10 29 16 SSE 992,7
07.11.2019 16:00:00 9,3 7,6 14,1 31 17 47 25 SSE 992,7
07.11.2019 15:00:00 9,5 8,7 14,0 42 23 61 33 SE 992,4
07.11.2019 14:00:00 - 8,5 14,0 48 26 47 25 ESE 992,6
07.11.2019 13:00:00 10,2 7,6 13,9 46 25 47 25 ESE 992,8
07.11.2019 12:00:00 10,3 7,5 13,9 50 27 50 27 ESE 993,6
07.11.2019 11:00:00 9,7 7,0 13,9 48 26 50 27 ESE 993,9
07.11.2019 10:00:00 9,8 5,6 13,8 42 23 43 23 ESE 994,3
07.11.2019 09:00:00 9,8 4,9 13,8 39 21 43 23 ESE 994,5
07.11.2019 08:00:00 10,1 4,9 13,8 37 20 40 21 SE 994,9
07.11.2019 07:00:00 10,3 5,4 13,9 35 19 36 19 SE 995,5
07.11.2019 06:00:00 10,2 4,4 13,9 22 12 25 14 SSE 995,9
07.11.2019 05:00:00 9,8 4,7 14,0 13 7 22 12 SE 996,5
07.11.2019 04:00:00 9,4 4,1 14,0 18 10 25 14 ESE 997,3
07.11.2019 03:00:00 9,0 5,3 14,0 26 14 32 18 SE 998,1
07.11.2019 02:00:00 9,1 4,4 14,0 28 15 29 16 SSE 998,7
07.11.2019 01:00:00 8,9 3,9 13,9 24 13 29 16 SSE 999,3
07.11.2019 00:00:00 7,7 4,3 13,9 15 8 29 16 - 1000,2
06.11.2019 23:00:00 7,7 4,7 13,9 28 15 32 18 S 1000,9
06.11.2019 22:00:00 8,9 3,5 13,9 13 7 18 10 SSE 1001,3
06.11.2019 21:00:00 8,9 3,0 13,8 15 8 18 10 ESE 1001,6
06.11.2019 20:00:00 8,6 2,8 13,8 9 5 14 8 SE 1002,0
06.11.2019 19:00:00 8,2 3,0 13,8 13 7 18 10 S 1002,7
06.11.2019 18:00:00 9,0 2,0 13,9 9 5 14 8 N 1002,7
06.11.2019 17:00:00 9,1 1,6 14,0 2 1 7 4 - 1002,8
06.11.2019 16:00:00 9,1 0,9 14,1 4 2 7 4 ENE 1005,4
06.11.2019 15:00:00 9,6 1,0 14,1 2 1 11 6 - 1005,8
06.11.2019 14:00:00 9,4 0,7 - 4 2 11 6 N 1005,9
06.11.2019 13:00:00 9,3 1,6 14,0 8 4 14 8 N 1006,5
06.11.2019 12:00:00 9,2 1,3 14,0 13 7 18 10 NNE 1004,0
06.11.2019 11:00:00 9,3 1,3 14,0 16 9 22 12 N 1004,2

tt = Température de l'air
td = dewpoint
tw = water temperature
ff = Vitesse du vent
fx = gusts
dd = Direction du vent
ppp = reduced air pressure

stations d'obs. à proximité